Time;durP1;ratioP1;P1;durP2;ratioP2;P2;SDS_P1;SDS_P2;PMS_P1;PMS_P2;Temp;Humidity;BMP_temperature;BMP_pressure;BME280_temperature;BME280_humidity;BME280_pressure;Samples;Min_cycle;Max_cycle;Signal;HPM_P1;HPM_P2
2022/07/01 00:00:03;;;;;;;;;;;15.90;99.90;16.00;99854.00;;;;340522;28;93534;-88
2022/07/01 00:00:15;;;;;;;;;;;15.90;99.90;16.00;99853.00;;;;339995;28;91230;-88
2022/07/01 00:00:27;;;;;;;;;;;15.90;99.90;16.00;99858.00;;;;341879;28;94086;-87
2022/07/01 00:00:38;;;;;;;;;;;15.90;99.90;16.00;99862.00;;;;340278;28;91093;-87
2022/07/01 00:00:50;;;;;;;;;;;15.90;99.90;16.00;99853.00;;;;339260;28;93566;-87
2022/07/01 00:01:02;;;;;;;;;;;15.90;99.90;16.00;99857.00;;;;340337;28;91158;-88
2022/07/01 00:01:14;;;;;;;;;;;15.90;99.90;16.10;99853.00;;;;337898;28;93485;-88
2022/07/01 00:01:26;;;;;;;;;;;15.90;99.90;16.20;99859.00;;;;338440;28;91329;-87
2022/07/01 00:01:39;;;;;;;;;;;15.90;99.90;16.20;99858.00;;;;340163;28;91414;-88
2022/07/01 00:01:51;;;;;;;;;;;15.90;99.90;16.20;99864.00;;;;341389;28;92104;-87
2022/07/01 00:02:03;;;;;;;;;;;15.90;99.90;16.20;99857.00;;;;340434;28;94260;-88
2022/07/01 00:02:15;;;;;;;;;;;15.90;99.90;16.20;99865.00;;;;338909;28;92516;-87
2022/07/01 00:02:29;;;;;;;;;;;15.90;99.90;16.20;99865.00;;;;340567;28;90884;-88
2022/07/01 00:02:41;;;;;;;;;;;15.90;99.90;16.20;99861.00;;;;339056;28;91045;-87
2022/07/01 00:02:53;;;;;;;;;;;15.90;99.90;16.30;99864.00;;;;338935;28;94571;-88
2022/07/01 00:03:05;;;;;;;;;;;15.90;99.90;16.30;99876.00;;;;337584;28;92252;-87
2022/07/01 00:03:17;;;;;;;;;;;15.90;99.90;16.30;99875.00;;;;339190;28;93939;-88
2022/07/01 00:03:29;;;;;;;;;;;16.00;99.90;16.30;99878.00;;;;339028;28;91141;-87
2022/07/01 00:03:48;;;;;;;;;;;16.00;99.90;16.30;99879.00;;;;340623;28;92750;-87
2022/07/01 00:04:00;;;;;;;;;;;16.00;99.90;16.10;99887.00;;;;340343;28;91993;-87
2022/07/01 00:04:12;;;;;;;;;;;16.00;99.90;16.10;99890.00;;;;340523;28;93910;-88
2022/07/01 00:04:27;;;;;;;;;;;16.00;99.90;16.10;99896.00;;;;340117;28;91968;-87
2022/07/01 00:04:39;;;;;;;;;;;16.00;99.90;16.00;99896.00;;;;340317;28;93535;-87
2022/07/01 00:04:51;;;;;;;;;;;16.00;99.90;15.90;99908.00;;;;340308;28;91055;-87
2022/07/01 00:05:03;;;;;;;;;;;16.00;99.90;16.00;99900.00;;;;337834;28;94429;-88
2022/07/01 00:05:14;;;;;;;;;;;16.00;99.90;15.90;99910.00;;;;338948;28;91924;-87
2022/07/01 00:05:26;;;;;;;;;;;15.90;99.90;15.90;99913.00;;;;339098;28;92394;-87
2022/07/01 00:05:38;;;;;;;;;;;15.90;99.90;16.00;99915.00;;;;340254;28;91303;-87
2022/07/01 00:05:50;;;;;;;;;;;16.00;99.90;16.10;99925.00;;;;341893;28;93013;-88
2022/07/01 00:06:01;;;;;;;;;;;15.90;99.90;16.10;99932.00;;;;340354;28;92024;-88
2022/07/01 00:06:13;;;;;;;;;;;15.90;99.90;16.10;99935.00;;;;340500;28;93796;-87
2022/07/01 00:06:25;;;;;;;;;;;15.90;99.90;16.00;99933.00;;;;340357;28;91201;-88
2022/07/01 00:06:37;;;;;;;;;;;15.90;99.90;16.00;99938.00;;;;341560;28;94858;-87
2022/07/01 00:06:49;;;;;;;;;;;15.90;99.90;16.10;99943.00;;;;340104;28;91996;-87
2022/07/01 00:07:00;;;;;;;;;;;15.90;99.90;16.10;99950.00;;;;340560;28;92406;-87
2022/07/01 00:07:12;;;;;;;;;;;16.00;99.90;16.10;99941.00;;;;340376;28;91939;-87
2022/07/01 00:07:24;;;;;;;;;;;15.90;99.90;16.10;99942.00;;;;341361;28;93851;-87
2022/07/01 00:07:36;;;;;;;;;;;15.90;99.90;16.10;99947.00;;;;341436;28;91361;-87
2022/07/01 00:07:47;;;;;;;;;;;15.90;99.90;16.10;99950.00;;;;341872;28;92012;-87
2022/07/01 00:07:59;;;;;;;;;;;15.90;99.90;16.10;99941.00;;;;341580;28;92011;-87
2022/07/01 00:08:11;;;;;;;;;;;15.90;99.90;16.00;99947.00;;;;341813;28;92858;-87
2022/07/01 00:08:23;;;;;;;;;;;15.90;99.90;16.00;99941.00;;;;338919;28;92038;-87
2022/07/01 00:08:35;;;;;;;;;;;15.90;99.90;16.00;99935.00;;;;339148;28;93527;-88
2022/07/01 00:08:47;;;;;;;;;;;15.90;99.90;16.00;99944.00;;;;339004;28;91956;-88
2022/07/01 00:08:59;;;;;;;;;;;15.90;99.90;15.90;99936.00;;;;338966;28;94025;-88
2022/07/01 00:09:11;;;;;;;;;;;15.90;99.90;15.90;99927.00;;;;338913;28;91986;-87
2022/07/01 00:09:23;;;;;;;;;;;15.90;99.90;16.00;99931.00;;;;340589;28;92903;-87
2022/07/01 00:09:34;;;;;;;;;;;15.90;99.90;16.00;99930.00;;;;336261;28;91266;-87
2022/07/01 00:09:46;;;;;;;;;;;15.90;99.90;16.00;99930.00;;;;336490;28;93523;-88
2022/07/01 00:09:58;;;;;;;;;;;15.90;99.90;16.10;99925.00;;;;336321;28;91787;-88
2022/07/01 00:10:10;;;;;;;;;;;15.90;99.90;16.00;99922.00;;;;339207;28;92028;-88
2022/07/01 00:10:22;;;;;;;;;;;15.90;99.90;16.00;99924.00;;;;341678;28;92034;-88
2022/07/01 00:10:35;;;;;;;;;;;15.90;99.90;16.00;99920.00;;;;340988;28;95483;-87
2022/07/01 00:10:47;;;;;;;;;;;15.90;99.90;16.00;99916.00;;;;340258;28;91947;-87
2022/07/01 00:10:59;;;;;;;;;;;15.80;99.90;15.90;99910.00;;;;340134;28;95682;-87
2022/07/01 00:11:11;;;;;;;;;;;15.80;99.90;16.00;99919.00;;;;338704;28;91277;-87
2022/07/01 00:11:23;;;;;;;;;;;15.80;99.90;16.00;99915.00;;;;340606;28;93956;-87
2022/07/01 00:11:35;;;;;;;;;;;15.80;99.90;16.00;99903.00;;;;338828;28;91348;-87
2022/07/01 00:11:47;;;;;;;;;;;15.80;99.90;16.00;99896.00;;;;339361;28;92007;-87
2022/07/01 00:11:59;;;;;;;;;;;15.80;99.90;16.00;99899.00;;;;340307;28;91933;-88
2022/07/01 00:12:11;;;;;;;;;;;15.80;99.90;15.90;99896.00;;;;341515;28;95624;-87
2022/07/01 00:12:22;;;;;;;;;;;15.80;99.90;15.90;99904.00;;;;341393;28;92084;-87
2022/07/01 00:12:34;;;;;;;;;;;15.80;99.90;15.90;99899.00;;;;339196;28;93856;-88
2022/07/01 00:12:46;;;;;;;;;;;15.80;99.90;15.80;99894.00;;;;340374;28;91834;-87
2022/07/01 00:12:58;;;;;;;;;;;15.80;99.90;15.80;99891.00;;;;340278;28;93536;-88
2022/07/01 00:13:10;;;;;;;;;;;15.80;99.90;15.80;99891.00;;;;340196;28;92032;-88
2022/07/01 00:13:21;;;;;;;;;;;15.80;99.90;15.80;99892.00;;;;340582;28;92723;-87
2022/07/01 00:13:33;;;;;;;;;;;15.80;99.90;15.90;99893.00;;;;339734;28;91447;-87
2022/07/01 00:13:45;;;;;;;;;;;15.80;99.90;15.90;99893.00;;;;340111;28;93312;-87
2022/07/01 00:13:57;;;;;;;;;;;15.80;99.90;15.90;99888.00;;;;341195;28;92022;-87
2022/07/01 00:14:08;;;;;;;;;;;15.80;99.90;15.90;99891.00;;;;339188;28;93606;-87
2022/07/01 00:14:22;;;;;;;;;;;15.80;99.90;15.90;99889.00;;;;339937;28;91204;-87
2022/07/01 00:14:34;;;;;;;;;;;15.80;99.90;15.90;99889.00;;;;340291;28;93986;-88
2022/07/01 00:14:46;;;;;;;;;;;15.80;99.90;15.90;99882.00;;;;339048;28;91893;-87
2022/07/01 00:14:58;;;;;;;;;;;15.80;99.90;15.90;99881.00;;;;339145;28;94013;-87
2022/07/01 00:15:10;;;;;;;;;;;15.80;99.90;16.00;99881.00;;;;340017;28;92107;-88
2022/07/01 00:15:22;;;;;;;;;;;15.80;99.90;16.10;99886.00;;;;339180;28;93505;-87
2022/07/01 00:15:34;;;;;;;;;;;15.80;99.90;16.00;99882.00;;;;340234;28;91320;-88
2022/07/01 00:15:45;;;;;;;;;;;15.80;99.90;15.90;99879.00;;;;340644;28;91831;-87
2022/07/01 00:15:57;;;;;;;;;;;15.80;99.90;15.80;99884.00;;;;340297;28;91946;-88
2022/07/01 00:16:09;;;;;;;;;;;15.80;99.90;15.90;99879.00;;;;341913;28;92398;-87
2022/07/01 00:16:21;;;;;;;;;;;15.80;99.90;15.90;99870.00;;;;340347;28;92026;-88
2022/07/01 00:16:33;;;;;;;;;;;15.80;99.90;15.80;99878.00;;;;338504;28;94124;-87
2022/07/01 00:16:45;;;;;;;;;;;15.70;99.90;15.80;99873.00;;;;340466;28;92213;-87
2022/07/01 00:16:57;;;;;;;;;;;15.70;99.90;15.90;99866.00;;;;339021;28;93832;-87
2022/07/01 00:17:09;;;;;;;;;;;15.70;99.90;15.90;99873.00;;;;338935;28;92096;-88
2022/07/01 00:17:20;;;;;;;;;;;15.70;99.90;15.90;99864.00;;;;339125;28;94180;-88
2022/07/01 00:17:32;;;;;;;;;;;15.70;99.90;15.90;99864.00;;;;338852;28;91322;-87
2022/07/01 00:17:44;;;;;;;;;;;15.70;99.90;16.00;99866.00;;;;340651;28;93210;-87
2022/07/01 00:17:57;;;;;;;;;;;15.70;99.90;16.00;99877.00;;;;340244;28;92087;-88
2022/07/01 00:18:09;;;;;;;;;;;15.80;99.90;16.00;99860.00;;;;340251;28;92429;-87
2022/07/01 00:18:23;;;;;;;;;;;15.70;99.90;16.00;99870.00;;;;338913;28;91918;-87
2022/07/01 00:18:35;;;;;;;;;;;15.80;99.90;16.10;99876.00;;;;338863;28;92391;-87
2022/07/01 00:18:47;;;;;;;;;;;15.70;99.90;16.10;99863.00;;;;338802;28;92547;-87
2022/07/01 00:18:59;;;;;;;;;;;15.80;99.90;16.10;99874.00;;;;337896;28;93846;-87
2022/07/01 00:19:10;;;;;;;;;;;15.80;99.90;16.20;99869.00;;;;338889;28;91209;-88
2022/07/01 00:19:22;;;;;;;;;;;15.80;99.90;16.10;99878.00;;;;340312;28;95100;-87
2022/07/01 00:19:34;;;;;;;;;;;15.80;99.90;16.10;99868.00;;;;341128;28;91498;-87
2022/07/01 00:19:48;;;;;;;;;;;15.80;99.90;16.10;99876.00;;;;341656;28;95118;-88
2022/07/01 00:19:59;;;;;;;;;;;15.80;99.90;16.00;99883.00;;;;340752;28;92013;-87
2022/07/01 00:20:11;;;;;;;;;;;15.80;99.90;16.00;99876.00;;;;340455;28;93680;-87
2022/07/01 00:20:23;;;;;;;;;;;15.80;99.90;16.00;99878.00;;;;341666;28;91196;-88
2022/07/01 00:20:35;;;;;;;;;;;15.80;99.90;16.00;99873.00;;;;340549;28;93705;-87
2022/07/01 00:20:47;;;;;;;;;;;15.80;99.90;16.00;99879.00;;;;339961;28;91793;-87
2022/07/01 00:21:00;;;;;;;;;;;15.80;99.90;16.10;99879.00;;;;339249;28;92339;-87
2022/07/01 00:21:12;;;;;;;;;;;15.80;99.90;16.10;99883.00;;;;341497;28;91123;-88
2022/07/01 00:21:25;;;;;;;;;;;15.80;99.90;16.10;99880.00;;;;342210;28;94599;-87
2022/07/01 00:21:37;;;;;;;;;;;15.80;99.90;16.10;99883.00;;;;342278;28;90407;-87
2022/07/01 00:21:48;;;;;;;;;;;15.80;99.90;16.00;99877.00;;;;342110;28;92017;-86
2022/07/01 00:22:00;;;;;;;;;;;15.80;99.90;16.00;99879.00;;;;342144;28;91105;-85
2022/07/01 00:22:12;;;;;;;;;;;15.80;99.90;16.10;99882.00;;;;342300;28;91987;-86
2022/07/01 00:22:23;;;;;;;;;;;15.80;99.90;16.00;99877.00;;;;340568;28;91132;-86
2022/07/01 00:22:35;;;;;;;;;;;15.80;99.90;16.20;99866.00;;;;340676;28;92919;-86
2022/07/01 00:22:47;;;;;;;;;;;15.80;99.90;16.10;99863.00;;;;341961;28;91106;-87
2022/07/01 00:22:59;;;;;;;;;;;15.80;99.90;16.10;99881.00;;;;342081;28;92390;-88
2022/07/01 00:23:13;;;;;;;;;;;15.80;99.90;16.10;99872.00;;;;340653;28;91220;-87
2022/07/01 00:23:24;;;;;;;;;;;15.90;99.90;16.20;99868.00;;;;341982;28;93033;-88
2022/07/01 00:23:36;;;;;;;;;;;15.90;99.90;16.30;99870.00;;;;339111;28;90404;-86
2022/07/01 00:23:48;;;;;;;;;;;15.90;99.90;16.30;99875.00;;;;341990;28;92043;-88
2022/07/01 00:24:00;;;;;;;;;;;15.90;99.90;16.30;99872.00;;;;343178;28;91217;-86
2022/07/01 00:24:12;;;;;;;;;;;15.90;99.90;16.20;99864.00;;;;341922;28;92456;-86
2022/07/01 00:24:24;;;;;;;;;;;15.90;99.90;16.20;99861.00;;;;340199;28;91197;-87
2022/07/01 00:24:35;;;;;;;;;;;15.90;99.90;16.20;99855.00;;;;340199;28;94149;-87
2022/07/01 00:24:48;;;;;;;;;;;15.90;99.90;16.10;99869.00;;;;338125;28;91128;-87
2022/07/01 00:25:00;;;;;;;;;;;15.90;99.90;16.10;99865.00;;;;340425;28;93744;-87
2022/07/01 00:25:12;;;;;;;;;;;15.90;99.90;16.10;99860.00;;;;340235;28;91998;-88
2022/07/01 00:25:23;;;;;;;;;;;15.90;99.90;16.20;99848.00;;;;341683;28;93604;-87
2022/07/01 00:25:35;;;;;;;;;;;15.90;99.90;16.10;99858.00;;;;338626;28;91328;-88
2022/07/01 00:25:47;;;;;;;;;;;15.90;99.90;16.20;99858.00;;;;339180;28;91678;-88
2022/07/01 00:25:59;;;;;;;;;;;15.90;99.90;16.10;99850.00;;;;339015;28;91933;-87
2022/07/01 00:26:10;;;;;;;;;;;15.90;99.90;16.20;99844.00;;;;340534;28;93871;-87
2022/07/01 00:26:22;;;;;;;;;;;16.00;99.90;16.30;99843.00;;;;337669;28;91282;-87
2022/07/01 00:26:34;;;;;;;;;;;16.00;99.90;16.20;99837.00;;;;338798;28;91977;-87
2022/07/01 00:26:46;;;;;;;;;;;16.00;99.90;16.30;99838.00;;;;337751;28;91065;-87
2022/07/01 00:26:58;;;;;;;;;;;16.00;99.90;16.30;99822.00;;;;337706;28;93453;-88
2022/07/01 00:27:10;;;;;;;;;;;16.00;99.90;16.30;99826.00;;;;338783;28;91047;-87
2022/07/01 00:27:22;;;;;;;;;;;16.00;99.90;16.10;99823.00;;;;339194;28;94270;-88
2022/07/01 00:27:38;;;;;;;;;;;16.00;99.90;16.00;99821.00;;;;340241;28;91260;-87
2022/07/01 00:27:50;;;;;;;;;;;16.00;99.90;15.80;99821.00;;;;341926;28;91656;-87
2022/07/01 00:28:02;;;;;;;;;;;16.00;99.90;15.70;99811.00;;;;341642;28;91139;-87
2022/07/01 00:28:13;;;;;;;;;;;15.90;99.90;15.70;99812.00;;;;341566;28;95254;-87
2022/07/01 00:28:25;;;;;;;;;;;15.90;99.90;15.90;99808.00;;;;341065;28;92065;-87
2022/07/01 00:28:37;;;;;;;;;;;15.90;99.90;16.00;99802.00;;;;340464;28;92132;-87
2022/07/01 00:28:49;;;;;;;;;;;15.90;99.90;16.10;99807.00;;;;338735;28;92165;-87
2022/07/01 00:29:01;;;;;;;;;;;15.90;99.90;16.10;99809.00;;;;339538;28;93731;-87
2022/07/01 00:29:12;;;;;;;;;;;16.00;99.90;16.10;99823.00;;;;340058;28;91247;-87
2022/07/01 00:29:24;;;;;;;;;;;16.00;99.90;16.20;99818.00;;;;339167;28;93470;-87
2022/07/01 00:29:36;;;;;;;;;;;16.00;99.90;16.20;99823.00;;;;340233;28;90469;-88
2022/07/01 00:29:48;;;;;;;;;;;16.00;99.90;16.20;99825.00;;;;340372;28;94540;-87
2022/07/01 00:30:00;;;;;;;;;;;16.00;99.90;16.20;99826.00;;;;340309;28;91859;-88
2022/07/01 00:30:13;;;;;;;;;;;16.00;99.90;16.00;99826.00;;;;339141;28;93945;-87
2022/07/01 00:30:25;;;;;;;;;;;16.00;99.90;16.10;99830.00;;;;335938;28;92151;-87
2022/07/01 00:30:37;;;;;;;;;;;16.00;99.90;16.10;99837.00;;;;337960;28;93767;-87
2022/07/01 00:30:49;;;;;;;;;;;16.00;99.90;16.00;99838.00;;;;338912;28;91892;-86
2022/07/01 00:31:00;;;;;;;;;;;16.00;99.90;16.00;99843.00;;;;340489;28;93897;-87
2022/07/01 00:31:12;;;;;;;;;;;15.90;99.90;15.90;99840.00;;;;341637;28;91946;-87
2022/07/01 00:31:24;;;;;;;;;;;15.90;99.90;15.90;99845.00;;;;338988;28;93012;-88
2022/07/01 00:31:36;;;;;;;;;;;15.90;99.90;15.80;99844.00;;;;336672;28;90443;-88
2022/07/01 00:31:47;;;;;;;;;;;15.90;99.90;15.80;99848.00;;;;337844;28;93213;-87
2022/07/01 00:31:59;;;;;;;;;;;15.90;99.90;15.90;99850.00;;;;338989;28;92110;-88
2022/07/01 00:32:11;;;;;;;;;;;15.90;99.90;15.90;99844.00;;;;337863;28;93467;-88
2022/07/01 00:32:23;;;;;;;;;;;15.90;99.90;15.90;99838.00;;;;334980;29;91320;-88
2022/07/01 00:32:35;;;;;;;;;;;15.90;99.90;15.90;99840.00;;;;337697;28;93344;-87
2022/07/01 00:32:47;;;;;;;;;;;15.90;99.90;15.90;99836.00;;;;337627;28;91881;-88
2022/07/01 00:32:59;;;;;;;;;;;15.80;99.90;15.80;99848.00;;;;337814;28;93302;-88
2022/07/01 00:33:11;;;;;;;;;;;15.80;99.90;15.90;99843.00;;;;337620;28;91890;-88
2022/07/01 00:33:22;;;;;;;;;;;15.80;99.90;15.90;99844.00;;;;340408;28;93924;-87
2022/07/01 00:33:34;;;;;;;;;;;15.80;99.90;15.90;99836.00;;;;340232;28;91250;-87
2022/07/01 00:33:46;;;;;;;;;;;15.80;99.90;15.90;99848.00;;;;337931;28;92801;-88
2022/07/01 00:33:58;;;;;;;;;;;15.80;99.90;15.90;99850.00;;;;337740;28;91878;-88
2022/07/01 00:34:10;;;;;;;;;;;15.80;99.90;15.90;99845.00;;;;339130;28;94172;-87
2022/07/01 00:34:21;;;;;;;;;;;15.80;99.90;15.90;99846.00;;;;340241;28;92067;-87
2022/07/01 00:34:33;;;;;;;;;;;15.80;99.90;15.90;99849.00;;;;339755;28;94336;-88
2022/07/01 00:34:45;;;;;;;;;;;15.80;99.90;15.90;99839.00;;;;340188;28;91286;-88
2022/07/01 00:34:57;;;;;;;;;;;15.80;99.90;15.90;99841.00;;;;340026;28;92645;-87
2022/07/01 00:35:09;;;;;;;;;;;15.80;99.90;15.90;99845.00;;;;340356;28;91845;-87
2022/07/01 00:35:21;;;;;;;;;;;15.80;99.90;15.90;99844.00;;;;339144;28;92420;-88
2022/07/01 00:35:32;;;;;;;;;;;15.80;99.90;16.00;99835.00;;;;338843;28;91226;-87
2022/07/01 00:35:44;;;;;;;;;;;15.80;99.90;16.00;99846.00;;;;337773;28;92907;-87
2022/07/01 00:35:56;;;;;;;;;;;15.80;99.90;16.00;99846.00;;;;338774;28;91987;-87
2022/07/01 00:36:08;;;;;;;;;;;15.80;99.90;16.00;99840.00;;;;339187;28;93819;-87
2022/07/01 00:36:20;;;;;;;;;;;15.80;99.90;15.90;99846.00;;;;340250;28;91971;-87
2022/07/01 00:36:34;;;;;;;;;;;15.80;99.90;15.90;99845.00;;;;341968;28;92808;-87
2022/07/01 00:36:46;;;;;;;;;;;15.80;99.90;15.90;99845.00;;;;340285;28;92027;-87
2022/07/01 00:36:59;;;;;;;;;;;15.80;99.90;15.90;99840.00;;;;339137;28;93834;-87
2022/07/01 00:37:10;;;;;;;;;;;15.80;99.90;15.90;99848.00;;;;338980;28;91938;-87
2022/07/01 00:37:22;;;;;;;;;;;15.80;99.90;15.90;99848.00;;;;340224;28;92694;-88
2022/07/01 00:37:34;;;;;;;;;;;15.80;99.90;16.00;99846.00;;;;339978;28;92292;-87
2022/07/01 00:37:46;;;;;;;;;;;15.80;99.90;16.00;99855.00;;;;341835;28;92726;-87
2022/07/01 00:37:57;;;;;;;;;;;15.80;99.90;16.00;99839.00;;;;341534;28;91886;-87
2022/07/01 00:38:10;;;;;;;;;;;15.80;99.90;16.00;99860.00;;;;340570;28;93692;-87
2022/07/01 00:38:21;;;;;;;;;;;15.80;99.90;16.00;99853.00;;;;338554;28;92171;-88
2022/07/01 00:38:33;;;;;;;;;;;15.80;99.90;16.00;99862.00;;;;339987;28;94152;-87
2022/07/01 00:38:45;;;;;;;;;;;15.80;99.90;15.90;99859.00;;;;338880;28;91886;-88
2022/07/01 00:39:00;;;;;;;;;;;15.80;99.90;16.00;99867.00;;;;338989;28;93938;-88
2022/07/01 00:39:12;;;;;;;;;;;15.80;99.90;16.00;99864.00;;;;337604;28;91125;-88
2022/07/01 00:39:23;;;;;;;;;;;15.80;99.90;16.00;99870.00;;;;337748;28;93162;-87
2022/07/01 00:39:36;;;;;;;;;;;15.80;99.90;16.00;99868.00;;;;337499;28;91281;-87
2022/07/01 00:39:48;;;;;;;;;;;15.80;99.90;16.00;99867.00;;;;337882;28;92336;-87
2022/07/01 00:40:00;;;;;;;;;;;15.80;99.90;15.90;99868.00;;;;338658;28;92066;-88
2022/07/01 00:40:12;;;;;;;;;;;15.80;99.90;15.90;99872.00;;;;340434;28;93923;-87
2022/07/01 00:40:24;;;;;;;;;;;15.80;99.90;15.90;99866.00;;;;340135;28;92036;-88
2022/07/01 00:40:36;;;;;;;;;;;15.80;99.90;15.90;99876.00;;;;340333;28;96566;-87
2022/07/01 00:40:52;;;;;;;;;;;15.80;99.90;15.90;99881.00;;;;338841;28;92011;-86
2022/07/01 00:41:04;;;;;;;;;;;15.80;99.90;15.80;99880.00;;;;339165;28;93502;-87
2022/07/01 00:41:16;;;;;;;;;;;15.80;99.90;15.70;99880.00;;;;339020;28;91874;-87
2022/07/01 00:41:28;;;;;;;;;;;15.80;99.90;15.60;99888.00;;;;340155;28;93590;-87
2022/07/01 00:41:39;;;;;;;;;;;15.80;99.90;15.50;99882.00;;;;338739;28;90452;-87
2022/07/01 00:41:51;;;;;;;;;;;15.70;99.90;15.50;99880.00;;;;340523;28;94164;-87
2022/07/01 00:42:06;;;;;;;;;;;15.70;99.90;15.60;99891.00;;;;340275;28;92040;-87
2022/07/01 00:42:18;;;;;;;;;;;15.70;99.90;15.60;99894.00;;;;341753;28;93598;-88
2022/07/01 00:42:30;;;;;;;;;;;15.70;99.90;15.60;99890.00;;;;339786;28;92145;-87
2022/07/01 00:42:43;;;;;;;;;;;15.70;99.90;15.60;99895.00;;;;340627;28;91534;-87
2022/07/01 00:42:55;;;;;;;;;;;15.70;99.90;15.60;99895.00;;;;338854;28;91997;-87
2022/07/01 00:43:07;;;;;;;;;;;15.70;99.90;15.60;99899.00;;;;339165;28;93914;-88
2022/07/01 00:43:22;;;;;;;;;;;15.70;99.90;15.60;99888.00;;;;340342;28;91905;-87
2022/07/01 00:43:55;;;;;;;;;;;15.70;99.90;15.60;99892.00;;;;340425;28;95841;-87
2022/07/01 00:44:18;;;;;;;;;;;15.60;99.90;15.70;99891.00;;;;341662;28;91224;-87
2022/07/01 00:44:30;;;;;;;;;;;15.70;99.90;15.70;99886.00;;;;340375;28;93090;-87
2022/07/01 00:44:42;;;;;;;;;;;15.60;99.90;15.70;99884.00;;;;340328;28;91115;-87
2022/07/01 00:44:54;;;;;;;;;;;15.60;99.90;15.70;99874.00;;;;340477;28;92108;-88
2022/07/01 00:45:08;;;;;;;;;;;15.60;99.90;15.70;99876.00;;;;340342;28;91907;-87
2022/07/01 00:45:20;;;;;;;;;;;15.60;99.90;15.70;99864.00;;;;340292;28;92123;-87
2022/07/01 00:45:32;;;;;;;;;;;15.60;99.90;15.70;99866.00;;;;338694;28;91991;-87
2022/07/01 00:45:45;;;;;;;;;;;15.60;99.90;15.70;99859.00;;;;341975;28;93616;-87
2022/07/01 00:45:56;;;;;;;;;;;15.60;99.90;15.70;99853.00;;;;338842;28;91167;-87
2022/07/01 00:46:08;;;;;;;;;;;15.60;99.90;15.80;99844.00;;;;339213;28;93451;-87
2022/07/01 00:46:20;;;;;;;;;;;15.60;99.90;15.90;99844.00;;;;338925;28;90303;-87
2022/07/01 00:46:34;;;;;;;;;;;15.60;99.90;15.90;99829.00;;;;340236;28;91337;-88
2022/07/01 00:46:49;;;;;;;;;;;15.60;99.90;15.90;99834.00;;;;338857;28;92060;-88
2022/07/01 00:47:03;;;;;;;;;;;15.60;99.90;15.90;99826.00;;;;339099;28;91930;-88
2022/07/01 00:47:14;;;;;;;;;;;15.60;99.90;15.80;99811.00;;;;339051;28;91903;-88
2022/07/01 00:47:26;;;;;;;;;;;15.60;99.90;15.70;99808.00;;;;339066;28;93875;-87
2022/07/01 00:47:40;;;;;;;;;;;15.60;99.90;15.60;99802.00;;;;336360;28;91889;-87
2022/07/01 00:47:51;;;;;;;;;;;15.60;99.90;15.80;99801.00;;;;337842;28;93611;-87
2022/07/01 00:48:03;;;;;;;;;;;15.60;99.90;15.60;99799.00;;;;339719;28;92695;-88
2022/07/01 00:48:15;;;;;;;;;;;15.60;99.90;15.70;99788.00;;;;340501;28;92988;-87
2022/07/01 00:48:27;;;;;;;;;;;15.60;99.90;15.70;99785.00;;;;338887;28;91134;-88
2022/07/01 00:48:39;;;;;;;;;;;15.60;99.90;15.70;99784.00;;;;339258;28;92667;-87
2022/07/01 00:48:54;;;;;;;;;;;15.60;99.90;15.80;99784.00;;;;338923;28;91945;-87
2022/07/01 00:49:06;;;;;;;;;;;15.50;99.90;15.70;99781.00;;;;340552;28;94052;-87
2022/07/01 00:49:18;;;;;;;;;;;15.60;99.90;15.70;99771.00;;;;340285;28;91909;-88
2022/07/01 00:49:30;;;;;;;;;;;15.60;99.90;15.70;99770.00;;;;338660;28;93056;-86
2022/07/01 00:49:41;;;;;;;;;;;15.60;99.90;15.80;99763.00;;;;340334;28;91304;-87
2022/07/01 00:49:53;;;;;;;;;;;15.60;99.90;15.80;99757.00;;;;340562;28;93087;-88
2022/07/01 00:50:12;;;;;;;;;;;15.60;99.90;15.70;99763.00;;;;337335;28;91501;-87
2022/07/01 00:50:24;;;;;;;;;;;15.60;99.90;15.80;99750.00;;;;337852;28;93826;-88
2022/07/01 00:50:36;;;;;;;;;;;15.60;99.90;15.80;99754.00;;;;340196;28;90494;-88
2022/07/01 00:50:48;;;;;;;;;;;15.60;99.90;15.80;99752.00;;;;340525;28;92764;-84
2022/07/01 00:51:00;;;;;;;;;;;15.60;99.90;15.80;99748.00;;;;338909;28;92095;-87
2022/07/01 00:51:12;;;;;;;;;;;15.60;99.90;15.80;99750.00;;;;340564;28;92028;-87
2022/07/01 00:51:24;;;;;;;;;;;15.60;99.90;15.80;99748.00;;;;337713;28;91889;-88
2022/07/01 00:51:35;;;;;;;;;;;15.60;99.90;15.70;99753.00;;;;338803;28;93722;-87
2022/07/01 00:51:47;;;;;;;;;;;15.60;99.90;15.80;99757.00;;;;337757;28;91897;-87
2022/07/01 00:51:59;;;;;;;;;;;15.60;99.90;15.70;99758.00;;;;339180;28;93998;-87
2022/07/01 00:52:11;;;;;;;;;;;15.60;99.90;15.60;99751.00;;;;338915;28;91932;-88
2022/07/01 00:52:22;;;;;;;;;;;15.60;99.90;15.60;99741.00;;;;339178;28;93552;-87
2022/07/01 00:52:41;;;;;;;;;;;15.60;99.90;15.70;99761.00;;;;338702;28;91422;-87
2022/07/01 00:52:53;;;;;;;;;;;15.60;99.90;15.60;99754.00;;;;340351;28;95115;-88
2022/07/01 00:53:05;;;;;;;;;;;15.60;99.90;15.70;99757.00;;;;339123;28;91924;-87
2022/07/01 00:53:16;;;;;;;;;;;15.60;99.90;15.70;99759.00;;;;340530;28;93765;-87
2022/07/01 00:53:29;;;;;;;;;;;15.60;99.90;15.80;99762.00;;;;339105;28;91816;-86
2022/07/01 00:53:41;;;;;;;;;;;15.60;99.90;15.80;99760.00;;;;340421;28;96259;-87
2022/07/01 00:53:52;;;;;;;;;;;15.60;99.90;15.70;99761.00;;;;338908;28;91722;-86
2022/07/01 00:54:04;;;;;;;;;;;15.60;99.90;15.80;99756.00;;;;337793;28;93828;-88
2022/07/01 00:54:16;;;;;;;;;;;15.60;99.90;15.80;99767.00;;;;338973;28;91004;-87
2022/07/01 00:54:28;;;;;;;;;;;15.60;99.90;15.60;99764.00;;;;338930;28;94678;-87
2022/07/01 00:54:39;;;;;;;;;;;15.60;99.90;15.60;99767.00;;;;337616;28;91160;-88
2022/07/01 00:54:51;;;;;;;;;;;15.60;99.90;15.70;99764.00;;;;339164;28;92021;-87
2022/07/01 00:55:03;;;;;;;;;;;15.60;99.90;15.80;99768.00;;;;338944;28;92039;-88
2022/07/01 00:55:15;;;;;;;;;;;15.60;99.90;15.80;99760.00;;;;341895;28;92445;-88
2022/07/01 00:55:27;;;;;;;;;;;15.60;99.90;15.90;99765.00;;;;340391;28;92003;-88
2022/07/01 00:55:39;;;;;;;;;;;15.60;99.90;15.80;99768.00;;;;339968;28;93266;-88
2022/07/01 00:55:50;;;;;;;;;;;15.60;99.90;15.80;99767.00;;;;338926;28;91733;-88
2022/07/01 00:56:02;;;;;;;;;;;15.60;99.90;15.80;99769.00;;;;341455;28;91945;-87
2022/07/01 00:56:14;;;;;;;;;;;15.60;99.90;15.80;99768.00;;;;338920;28;91975;-87
2022/07/01 00:56:26;;;;;;;;;;;15.60;99.90;15.80;99766.00;;;;339231;28;94030;-87
2022/07/01 00:56:38;;;;;;;;;;;15.60;99.90;15.80;99765.00;;;;341616;28;91173;-88
2022/07/01 00:56:49;;;;;;;;;;;15.60;99.90;15.90;99769.00;;;;340522;28;91478;-86
2022/07/01 00:57:08;;;;;;;;;;;15.60;99.90;15.90;99769.00;;;;338722;28;92086;-88
2022/07/01 00:57:20;;;;;;;;;;;15.60;99.90;15.80;99768.00;;;;339189;28;93645;-88
2022/07/01 00:57:34;;;;;;;;;;;15.60;99.90;15.90;99767.00;;;;340227;28;92427;-87
2022/07/01 00:57:46;;;;;;;;;;;15.60;99.90;15.90;99768.00;;;;340542;28;93718;-87
2022/07/01 00:57:58;;;;;;;;;;;15.60;99.90;15.90;99767.00;;;;340292;28;91701;-88
2022/07/01 00:58:09;;;;;;;;;;;15.60;99.90;15.90;99773.00;;;;340421;28;94187;-87
2022/07/01 00:58:21;;;;;;;;;;;15.70;99.90;15.90;99776.00;;;;340210;28;92011;-87
2022/07/01 00:58:33;;;;;;;;;;;15.60;99.90;15.90;99777.00;;;;340024;28;94686;-88
2022/07/01 00:58:45;;;;;;;;;;;15.70;99.90;16.00;99783.00;;;;341546;28;91307;-88
2022/07/01 00:58:56;;;;;;;;;;;15.70;99.90;16.00;99785.00;;;;340360;28;93005;-87
2022/07/01 00:59:08;;;;;;;;;;;15.70;99.90;16.00;99779.00;;;;340218;28;91930;-88
2022/07/01 00:59:20;;;;;;;;;;;15.70;99.90;16.00;99787.00;;;;340198;28;93860;-88
2022/07/01 00:59:31;;;;;;;;;;;15.70;99.90;15.90;99783.00;;;;342187;28;91894;-87
2022/07/01 00:59:43;;;;;;;;;;;15.70;99.90;15.90;99789.00;;;;343225;28;93747;-87
2022/07/01 00:59:55;;;;;;;;;;;15.70;99.90;15.90;99791.00;;;;343036;28;91072;-87
2022/07/01 01:00:09;;;;;;;;;;;15.70;99.90;15.90;99792.00;;;;341856;28;94282;-87
2022/07/01 01:00:22;;;;;;;;;;;15.70;99.90;15.90;99794.00;;;;340232;28;92669;-88
2022/07/01 01:00:34;;;;;;;;;;;15.70;99.90;15.90;99788.00;;;;341549;28;93795;-88